Time;durP1;ratioP1;P1;durP2;ratioP2;P2;SDS_P1;SDS_P2;PMS_P1;PMS_P2;Temp;Humidity;BMP_temperature;BMP_pressure;BME280_temperature;BME280_humidity;BME280_pressure;Samples;Min_cycle;Max_cycle;Signal;HPM_P1;HPM_P2
2023/08/26 00:02:13;;;;;;;3.60;2.40;;;;;;;;;;5052662;28;20261;-88
2023/08/26 00:04:42;;;;;;;3.13;2.20;;;;;;;;;;5052606;28;20412;-87
2023/08/26 00:07:09;;;;;;;1.98;1.85;;;;;;;;;;5051669;28;20233;-88
2023/08/26 00:09:36;;;;;;;4.05;2.00;;;;;;;;;;5052281;28;20198;-87
2023/08/26 00:12:03;;;;;;;2.25;2.05;;;;;;;;;;5052239;28;20699;-86
2023/08/26 00:14:30;;;;;;;3.28;2.78;;;;;;;;;;5052526;28;20245;-87
2023/08/26 00:16:57;;;;;;;2.78;1.90;;;;;;;;;;5060637;28;20257;-87
2023/08/26 00:19:24;;;;;;;2.20;2.00;;;;;;;;;;5056075;28;20210;-88
2023/08/26 00:21:53;;;;;;;2.78;2.13;;;;;;;;;;5055411;28;20241;-87
2023/08/26 00:24:20;;;;;;;2.60;2.40;;;;;;;;;;5055825;28;20727;-87
2023/08/26 00:26:47;;;;;;;2.63;2.38;;;;;;;;;;5056292;28;20614;-87
2023/08/26 00:29:14;;;;;;;2.72;2.45;;;;;;;;;;5062584;28;20212;-87
2023/08/26 00:31:41;;;;;;;2.72;2.53;;;;;;;;;;5074180;28;20230;-87
2023/08/26 00:34:08;;;;;;;3.28;2.33;;;;;;;;;;5063426;28;20235;-87
2023/08/26 00:36:36;;;;;;;2.65;2.45;;;;;;;;;;5057946;28;20240;-87
2023/08/26 00:39:04;;;;;;;3.33;2.40;;;;;;;;;;5068425;28;20198;-86
2023/08/26 00:41:31;;;;;;;3.45;2.70;;;;;;;;;;5055483;28;20737;-87
2023/08/26 00:43:58;;;;;;;3.50;2.97;;;;;;;;;;5055511;28;20226;-87
2023/08/26 00:46:25;;;;;;;3.53;3.05;;;;;;;;;;5055876;28;20779;-87
2023/08/26 00:48:52;;;;;;;3.95;3.17;;;;;;;;;;5075817;28;20201;-87
2023/08/26 00:51:20;;;;;;;4.85;3.35;;;;;;;;;;5070704;28;20230;-88
2023/08/26 00:53:48;;;;;;;4.97;3.85;;;;;;;;;;5054978;28;20261;-86
2023/08/26 00:56:16;;;;;;;4.47;4.07;;;;;;;;;;5061693;28;20262;-87
2023/08/26 00:58:43;;;;;;;7.45;4.10;;;;;;;;;;5075041;28;20209;-87
2023/08/26 01:01:11;;;;;;;5.60;4.32;;;;;;;;;;5072685;28;20229;-87
2023/08/26 01:03:39;;;;;;;7.75;4.28;;;;;;;;;;5065764;28;20233;-87
2023/08/26 01:06:06;;;;;;;5.82;4.53;;;;;;;;;;5065149;28;20807;-87
2023/08/26 01:08:33;;;;;;;5.03;4.10;;;;;;;;;;5070640;28;20259;-87
2023/08/26 01:11:04;;;;;;;5.22;4.35;;;;;;;;;;5074345;28;20237;-87
2023/08/26 01:13:36;;;;;;;4.40;4.00;;;;;;;;;;5074998;28;20225;-89
2023/08/26 01:16:04;;;;;;;5.15;4.13;;;;;;;;;;5059398;28;20224;-87
2023/08/26 01:18:31;;;;;;;6.85;4.93;;;;;;;;;;5074701;28;20205;-88
2023/08/26 01:20:59;;;;;;;6.88;4.80;;;;;;;;;;5074363;28;20595;-88
2023/08/26 01:23:43;;;;;;;7.07;4.55;;;;;;;;;;5074653;28;20221;-87
2023/08/26 01:26:12;;;;;;;7.57;4.53;;;;;;;;;;5074139;28;20233;-87
2023/08/26 01:28:39;;;;;;;5.45;4.20;;;;;;;;;;5074548;28;20549;-86
2023/08/26 01:31:09;;;;;;;4.80;4.28;;;;;;;;;;5074020;28;20237;-87
2023/08/26 01:33:38;;;;;;;5.60;4.80;;;;;;;;;;5074482;28;20236;-88
2023/08/26 01:36:08;;;;;;;5.85;5.00;;;;;;;;;;5073741;28;20248;-87
2023/08/26 01:41:52;;;;;;;5.57;5.00;;;;;;;;;;5071443;28;20240;-87
2023/08/26 01:44:19;;;;;;;4.60;4.10;;;;;;;;;;5073665;28;20224;-87
2023/08/26 01:46:47;;;;;;;4.40;3.92;;;;;;;;;;5060772;28;20868;-87
2023/08/26 01:49:14;;;;;;;4.82;4.28;;;;;;;;;;5053957;28;20260;-87
2023/08/26 01:51:41;;;;;;;6.57;5.10;;;;;;;;;;5072029;28;20232;-87
2023/08/26 01:54:08;;;;;;;4.97;3.95;;;;;;;;;;5068442;28;20738;-87
2023/08/26 01:56:36;;;;;;;5.85;4.50;;;;;;;;;;5060443;28;20221;-86
2023/08/26 01:59:05;;;;;;;6.00;4.60;;;;;;;;;;5073621;28;20263;-87
2023/08/26 02:01:33;;;;;;;4.53;4.10;;;;;;;;;;5054727;28;20236;-87
2023/08/26 02:04:00;;;;;;;5.70;4.65;;;;;;;;;;5089554;28;20269;-88
2023/08/26 02:06:28;;;;;;;5.10;4.60;;;;;;;;;;5079151;28;20663;-87
2023/08/26 02:08:55;;;;;;;5.45;4.60;;;;;;;;;;5074197;28;20220;-88
2023/08/26 02:11:22;;;;;;;6.28;5.05;;;;;;;;;;5056170;28;20233;-87
2023/08/26 02:13:49;;;;;;;9.95;4.32;;;;;;;;;;5067695;28;20613;-88
2023/08/26 02:16:17;;;;;;;5.03;4.20;;;;;;;;;;5053244;28;20237;-87
2023/08/26 02:18:44;;;;;;;7.85;4.85;;;;;;;;;;5071629;28;20212;-86
2023/08/26 02:21:12;;;;;;;5.20;4.68;;;;;;;;;;5064242;28;20237;-85
2023/08/26 02:23:39;;;;;;;4.70;4.20;;;;;;;;;;5073496;28;20806;-88
2023/08/26 02:26:06;;;;;;;8.32;5.05;;;;;;;;;;5070042;28;20263;-87
2023/08/26 02:28:34;;;;;;;8.43;5.45;;;;;;;;;;5053575;28;20202;-86
2023/08/26 02:31:02;;;;;;;7.22;5.53;;;;;;;;;;5053332;28;20245;-87
2023/08/26 02:33:31;;;;;;;8.60;5.32;;;;;;;;;;5053980;28;20279;-87
2023/08/26 02:35:58;;;;;;;6.07;5.05;;;;;;;;;;5053045;28;20229;-86
2023/08/26 02:38:25;;;;;;;5.72;4.88;;;;;;;;;;5053343;28;20216;-87
2023/08/26 02:40:53;;;;;;;7.22;5.30;;;;;;;;;;5056689;28;20241;-88
2023/08/26 02:43:20;;;;;;;5.85;4.90;;;;;;;;;;5054018;28;20221;-86
2023/08/26 02:45:48;;;;;;;5.60;5.00;;;;;;;;;;5053022;28;20237;-88
2023/08/26 02:48:15;;;;;;;7.30;5.53;;;;;;;;;;5054613;28;20206;-87
2023/08/26 02:50:43;;;;;;;7.03;5.30;;;;;;;;;;5052850;28;20240;-88
2023/08/26 02:53:10;;;;;;;7.35;5.82;;;;;;;;;;5080563;23;20230;31
2023/08/26 02:55:37;;;;;;;7.40;5.40;;;;;;;;;;5049114;28;20236;-87
2023/08/26 02:58:04;;;;;;;8.23;6.57;;;;;;;;;;5049264;28;20202;-86
2023/08/26 03:00:34;;;;;;;7.10;5.97;;;;;;;;;;5039823;28;20226;-86
2023/08/26 03:03:01;;;;;;;7.25;6.63;;;;;;;;;;5050079;28;20408;-86
2023/08/26 03:05:28;;;;;;;7.10;6.38;;;;;;;;;;5050682;28;20248;-86
2023/08/26 03:07:56;;;;;;;10.75;6.15;;;;;;;;;;5050873;28;20690;-86
2023/08/26 03:10:23;;;;;;;9.07;6.70;;;;;;;;;;5051019;28;20591;-86
2023/08/26 03:12:50;;;;;;;8.60;6.40;;;;;;;;;;5050963;28;20631;-86
2023/08/26 03:15:17;;;;;;;7.70;5.45;;;;;;;;;;5050707;28;20695;-86
2023/08/26 03:17:45;;;;;;;8.32;6.70;;;;;;;;;;5051051;28;20214;-86
2023/08/26 03:20:13;;;;;;;9.18;5.93;;;;;;;;;;5050869;28;20206;-86
2023/08/26 03:22:40;;;;;;;7.97;6.32;;;;;;;;;;5051039;28;20680;-86
2023/08/26 03:25:09;;;;;;;7.47;5.55;;;;;;;;;;5050480;28;20594;-85
2023/08/26 03:27:36;;;;;;;8.00;5.53;;;;;;;;;;5050960;28;20198;-86
2023/08/26 03:30:03;;;;;;;6.57;5.45;;;;;;;;;;5050511;28;20202;-84
2023/08/26 03:32:30;;;;;;;6.50;5.35;;;;;;;;;;5051021;28;20672;-85
2023/08/26 03:34:57;;;;;;;7.13;5.20;;;;;;;;;;5050560;28;20226;-85
2023/08/26 03:37:24;;;;;;;8.88;5.75;;;;;;;;;;5050485;28;20276;-86
2023/08/26 03:39:52;;;;;;;7.32;5.72;;;;;;;;;;5050703;28;20214;-85
2023/08/26 03:42:20;;;;;;;7.95;5.53;;;;;;;;;;5050411;28;20229;-85
2023/08/26 03:44:47;;;;;;;9.98;5.40;;;;;;;;;;5050707;28;20222;-85
2023/08/26 03:47:14;;;;;;;8.43;5.43;;;;;;;;;;5050255;28;20233;-85
2023/08/26 03:49:41;;;;;;;9.10;5.13;;;;;;;;;;5050563;28;20214;-86
2023/08/26 03:52:09;;;;;;;11.10;5.80;;;;;;;;;;5051068;28;20233;-86
2023/08/26 03:54:37;;;;;;;7.50;5.20;;;;;;;;;;5054390;28;20273;-86
2023/08/26 03:57:04;;;;;;;10.32;5.85;;;;;;;;;;5053649;28;20230;-85
2023/08/26 03:59:32;;;;;;;7.88;4.93;;;;;;;;;;5054760;28;20217;-85
2023/08/26 04:01:59;;;;;;;5.60;4.90;;;;;;;;;;5053821;28;20237;-85
2023/08/26 04:04:27;;;;;;;5.90;4.75;;;;;;;;;;5054391;28;20217;-85
2023/08/26 04:06:56;;;;;;;7.05;4.78;;;;;;;;;;5053765;28;20230;-85
2023/08/26 04:09:23;;;;;;;5.63;4.82;;;;;;;;;;5053833;28;20861;-85
2023/08/26 04:11:50;;;;;;;6.97;4.72;;;;;;;;;;5053354;28;20782;-85
2023/08/26 04:14:17;;;;;;;6.10;4.95;;;;;;;;;;5053903;28;20280;-85
2023/08/26 04:16:45;;;;;;;6.82;5.07;;;;;;;;;;5053572;28;20221;-85
2023/08/26 04:19:14;;;;;;;5.10;4.60;;;;;;;;;;5045807;28;20755;-85
2023/08/26 04:21:41;;;;;;;10.50;5.82;;;;;;;;;;5053491;28;20222;-85
2023/08/26 04:24:08;;;;;;;5.18;4.68;;;;;;;;;;5054050;28;20226;-86
2023/08/26 04:26:35;;;;;;;6.70;5.07;;;;;;;;;;5053449;28;20229;-86
2023/08/26 04:29:02;;;;;;;6.07;4.82;;;;;;;;;;5054048;28;20216;-85
2023/08/26 04:31:29;;;;;;;7.03;4.45;;;;;;;;;;5053322;28;20226;-86
2023/08/26 04:33:57;;;;;;;7.47;4.88;;;;;;;;;;5053906;28;20312;-86
2023/08/26 04:36:25;;;;;;;7.40;4.68;;;;;;;;;;5052963;28;20271;-85
2023/08/26 04:38:52;;;;;;;5.55;4.25;;;;;;;;;;5053752;28;20213;-86
2023/08/26 04:41:19;;;;;;;5.45;4.40;;;;;;;;;;5053248;28;20233;-86
2023/08/26 04:43:47;;;;;;;5.78;4.32;;;;;;;;;;5053780;28;20226;-86
2023/08/26 04:46:14;;;;;;;8.35;4.15;;;;;;;;;;5053134;28;20237;-86
2023/08/26 04:48:41;;;;;;;5.93;4.05;;;;;;;;;;5053516;28;20201;-87
2023/08/26 04:51:09;;;;;;;4.28;3.88;;;;;;;;;;5052955;28;20240;-85
2023/08/26 04:53:36;;;;;;;8.30;3.95;;;;;;;;;;5054117;28;20230;-87
2023/08/26 04:56:04;;;;;;;6.18;3.90;;;;;;;;;;5054379;28;20233;-87
2023/08/26 04:58:31;;;;;;;4.25;3.85;;;;;;;;;;5054225;28;20832;-86
2023/08/26 05:00:59;;;;;;;4.88;4.47;;;;;;;;;;5053229;28;20709;-86
2023/08/26 05:03:26;;;;;;;5.13;4.63;;;;;;;;;;5053321;28;20613;-84
2023/08/26 05:05:53;;;;;;;10.75;5.00;;;;;;;;;;5053375;28;20240;-86
2023/08/26 05:08:21;;;;;;;4.70;3.83;;;;;;;;;;5053381;28;20244;-85
2023/08/26 05:10:48;;;;;;;6.03;3.92;;;;;;;;;;5053444;28;20230;-85
2023/08/26 05:13:15;;;;;;;4.60;3.90;;;;;;;;;;5053019;28;20201;-86
2023/08/26 05:15:42;;;;;;;4.72;4.03;;;;;;;;;;5044907;28;20235;-86
2023/08/26 05:18:09;;;;;;;5.50;4.20;;;;;;;;;;5033643;28;20210;-85
2023/08/26 05:20:37;;;;;;;6.38;3.67;;;;;;;;;;5048457;28;20229;-85
2023/08/26 05:23:04;;;;;;;4.22;3.83;;;;;;;;;;5053599;28;20202;-87
2023/08/26 05:25:32;;;;;;;7.78;3.80;;;;;;;;;;5053109;28;20238;-85
2023/08/26 05:27:59;;;;;;;6.03;2.90;;;;;;;;;;5052923;28;20206;-85
2023/08/26 05:30:26;;;;;;;3.72;3.33;;;;;;;;;;5052691;28;20237;-85
2023/08/26 05:32:53;;;;;;;4.35;2.85;;;;;;;;;;5053140;28;20213;-84
2023/08/26 05:35:20;;;;;;;5.20;3.25;;;;;;;;;;5052451;28;20241;-84
2023/08/26 05:37:47;;;;;;;3.40;3.10;;;;;;;;;;5052984;28;20206;-86
2023/08/26 05:40:15;;;;;;;8.05;3.10;;;;;;;;;;5052437;28;20217;-85
2023/08/26 05:42:43;;;;;;;3.55;3.10;;;;;;;;;;5052488;28;20198;-85
2023/08/26 05:45:11;;;;;;;4.35;3.00;;;;;;;;;;5052320;28;20229;-83
2023/08/26 05:47:38;;;;;;;4.30;2.90;;;;;;;;;;5052889;28;20210;-83
2023/08/26 05:50:06;;;;;;;3.40;2.55;;;;;;;;;;5052466;28;20207;-85
2023/08/26 05:52:33;;;;;;;4.75;3.03;;;;;;;;;;5053228;28;20214;-85
2023/08/26 05:55:00;;;;;;;4.80;2.67;;;;;;;;;;5052082;28;20603;-84
2023/08/26 05:57:27;;;;;;;4.88;2.50;;;;;;;;;;5052334;28;20234;-85
2023/08/26 05:59:55;;;;;;;4.53;2.90;;;;;;;;;;5052666;28;20198;-84
2023/08/26 06:02:22;;;;;;;4.35;2.50;;;;;;;;;;5052276;28;20238;-83
2023/08/26 06:04:49;;;;;;;3.10;2.63;;;;;;;;;;5052080;28;20214;-83
2023/08/26 06:07:17;;;;;;;7.63;2.65;;;;;;;;;;5047250;28;20245;-85
2023/08/26 06:09:44;;;;;;;3.47;2.38;;;;;;;;;;5052330;28;20276;-84
2023/08/26 06:12:11;;;;;;;2.50;2.20;;;;;;;;;;5051497;28;20230;-84
2023/08/26 06:14:38;;;;;;;3.47;2.20;;;;;;;;;;5051294;28;20233;-84
2023/08/26 06:17:07;;;;;;;6.03;2.30;;;;;;;;;;5051481;28;20240;-85
2023/08/26 06:19:34;;;;;;;2.42;2.13;;;;;;;;;;5052093;28;20213;-84
2023/08/26 06:22:01;;;;;;;4.40;3.08;;;;;;;;;;5051352;28;20350;-84
2023/08/26 06:24:28;;;;;;;2.22;1.90;;;;;;;;;;5051914;28;20236;-84
2023/08/26 06:26:55;;;;;;;2.10;1.88;;;;;;;;;;5051193;28;20596;-84
2023/08/26 06:29:25;;;;;;;3.22;2.15;;;;;;;;;;5052354;28;20221;-84
2023/08/26 06:31:53;;;;;;;5.28;2.00;;;;;;;;;;5051574;28;20287;-84
2023/08/26 06:34:21;;;;;;;7.38;5.10;;;;;;;;;;5052116;28;20248;-84
2023/08/26 06:36:48;;;;;;;2.33;1.75;;;;;;;;;;5051248;28;20234;-84
2023/08/26 06:39:15;;;;;;;2.38;1.85;;;;;;;;;;5052154;28;20241;-84
2023/08/26 06:41:42;;;;;;;2.47;2.28;;;;;;;;;;5051226;28;20233;-84
2023/08/26 06:44:09;;;;;;;1.85;1.70;;;;;;;;;;5051422;28;20308;-84
2023/08/26 06:46:36;;;;;;;1.80;1.67;;;;;;;;;;5051045;28;20237;-84
2023/08/26 06:49:04;;;;;;;2.70;1.77;;;;;;;;;;5051962;28;20213;-84
2023/08/26 06:51:32;;;;;;;6.07;1.80;;;;;;;;;;5051043;28;20287;-85
2023/08/26 06:53:59;;;;;;;2.17;1.30;;;;;;;;;;5051701;28;20268;-84
2023/08/26 06:56:27;;;;;;;3.05;1.88;;;;;;;;;;5051141;28;20241;-83
2023/08/26 06:58:54;;;;;;;2.05;1.58;;;;;;;;;;5051851;28;20209;-83
2023/08/26 07:01:21;;;;;;;3.65;1.65;;;;;;;;;;5051359;28;20226;-82
2023/08/26 07:03:48;;;;;;;1.58;1.40;;;;;;;;;;5051592;28;20220;-84
2023/08/26 07:06:15;;;;;;;1.60;1.48;;;;;;;;;;5051183;28;20234;-84
2023/08/26 07:08:44;;;;;;;1.98;1.35;;;;;;;;;;5051313;28;20206;-84
2023/08/26 07:11:12;;;;;;;2.28;1.35;;;;;;;;;;5050999;28;20730;-84
2023/08/26 07:13:39;;;;;;;1.48;1.38;;;;;;;;;;5051773;28;20253;-84
2023/08/26 07:16:06;;;;;;;1.25;1.15;;;;;;;;;;5050806;28;20256;-83
2023/08/26 07:18:33;;;;;;;2.08;1.40;;;;;;;;;;5051480;28;20220;-84
2023/08/26 07:21:00;;;;;;;1.50;1.40;;;;;;;;;;5050954;28;20234;-83
2023/08/26 07:23:27;;;;;;;1.67;1.55;;;;;;;;;;5051145;28;20213;-84
2023/08/26 07:25:56;;;;;;;1.25;1.15;;;;;;;;;;5047698;28;20249;-86
2023/08/26 07:28:23;;;;;;;2.03;1.50;;;;;;;;;;5055140;28;20626;-85
2023/08/26 07:30:51;;;;;;;1.52;1.42;;;;;;;;;;5054788;28;20244;-85
2023/08/26 07:33:18;;;;;;;3.53;1.60;;;;;;;;;;5055406;28;20647;-85
2023/08/26 07:35:45;;;;;;;1.83;1.42;;;;;;;;;;5054491;28;20718;-84
2023/08/26 07:38:12;;;;;;;1.63;1.23;;;;;;;;;;5066197;28;20201;-83
2023/08/26 07:40:40;;;;;;;1.38;1.27;;;;;;;;;;5068380;28;20233;-84
2023/08/26 07:43:08;;;;;;;1.40;1.27;;;;;;;;;;5066621;28;20225;-85
2023/08/26 07:45:35;;;;;;;2.53;1.40;;;;;;;;;;5065944;28;20232;-84
2023/08/26 07:48:02;;;;;;;1.50;1.30;;;;;;;;;;5063525;28;20679;-84
2023/08/26 07:50:29;;;;;;;2.72;1.27;;;;;;;;;;5065678;28;20707;-84
2023/08/26 07:52:56;;;;;;;1.60;1.30;;;;;;;;;;5051988;28;20287;-85
2023/08/26 07:55:24;;;;;;;3.65;1.48;;;;;;;;;;5066144;28;20237;-84
2023/08/26 07:57:51;;;;;;;3.15;1.70;;;;;;;;;;5068638;28;20213;-84
2023/08/26 08:00:19;;;;;;;3.00;2.30;;;;;;;;;;5060038;28;20297;-84
2023/08/26 08:02:46;;;;;;;3.15;1.63;;;;;;;;;;5063807;28;20209;-84
2023/08/26 08:05:13;;;;;;;5.82;1.70;;;;;;;;;;5063335;28;20226;-84
2023/08/26 08:07:41;;;;;;;1.55;1.40;;;;;;;;;;5068291;28;20292;-83
2023/08/26 08:10:09;;;;;;;1.65;1.55;;;;;;;;;;5053855;28;20285;-84
2023/08/26 08:12:36;;;;;;;1.60;1.25;;;;;;;;;;5054177;28;20644;-82
2023/08/26 08:15:04;;;;;;;2.63;1.33;;;;;;;;;;5054121;28;20230;-83
2023/08/26 08:17:32;;;;;;;2.90;1.30;;;;;;;;;;5053653;28;20241;-83
2023/08/26 08:19:59;;;;;;;2.15;1.23;;;;;;;;;;5054466;28;20210;-88
2023/08/26 08:22:34;;;;;;;1.60;1.45;;;;;;;;;;5053477;28;20238;-84
2023/08/26 08:25:02;;;;;;;2.67;1.50;;;;;;;;;;5062270;28;20699;-83
2023/08/26 08:27:29;;;;;;;3.40;3.10;;;;;;;;;;5057720;28;20874;-83
2023/08/26 08:29:57;;;;;;;2.88;1.30;;;;;;;;;;5063825;28;20213;-84
2023/08/26 08:32:24;;;;;;;2.45;1.60;;;;;;;;;;5072374;28;20237;-83
2023/08/26 08:34:53;;;;;;;3.35;1.30;;;;;;;;;;5072319;28;20247;-83
2023/08/26 08:37:20;;;;;;;2.22;1.20;;;;;;;;;;5070330;28;20237;-83
2023/08/26 08:39:47;;;;;;;5.78;1.60;;;;;;;;;;5073092;28;20201;-84
2023/08/26 08:42:16;;;;;;;3.13;1.70;;;;;;;;;;5073042;28;20233;-84
2023/08/26 08:44:44;;;;;;;2.70;1.60;;;;;;;;;;5074037;28;20225;-83
2023/08/26 08:47:11;;;;;;;2.05;1.85;;;;;;;;;;5073090;28;20229;-83
2023/08/26 08:49:39;;;;;;;3.50;1.63;;;;;;;;;;5073801;28;20205;-83
2023/08/26 08:52:07;;;;;;;2.22;1.27;;;;;;;;;;5073197;28;20240;-83
2023/08/26 08:54:35;;;;;;;1.33;1.23;;;;;;;;;;5088292;22;20303;-89
2023/08/26 08:57:04;;;;;;;1.60;1.50;;;;;;;;;;5073791;28;20233;-89
2023/08/26 08:59:31;;;;;;;1.70;1.50;;;;;;;;;;5074106;28;20251;-89
2023/08/26 09:01:59;;;;;;;3.53;1.60;;;;;;;;;;5073494;28;20232;-87
2023/08/26 09:04:26;;;;;;;1.42;1.33;;;;;;;;;;5070278;28;20226;-86
2023/08/26 09:06:54;;;;;;;1.75;1.42;;;;;;;;;;5061575;28;20230;-87
2023/08/26 09:09:22;;;;;;;4.03;1.17;;;;;;;;;;5064220;28;20214;-89
2023/08/26 09:11:50;;;;;;;3.50;1.40;;;;;;;;;;5065528;28;20227;-90
2023/08/26 09:14:17;;;;;;;1.30;1.02;;;;;;;;;;5064439;28;20638;-88
2023/08/26 09:16:45;;;;;;;2.47;1.30;;;;;;;;;;5061876;28;20436;-90
2023/08/26 09:19:12;;;;;;;1.92;1.25;;;;;;;;;;5063784;28;20217;-89
2023/08/26 09:21:41;;;;;;;2.05;1.40;;;;;;;;;;5065535;28;20229;-88
2023/08/26 09:24:11;;;;;;;2.15;0.98;;;;;;;;;;5065044;28;20221;-87
2023/08/26 09:26:40;;;;;;;1.95;1.15;;;;;;;;;;5061509;28;20218;-89
2023/08/26 09:29:13;;;;;;;1.60;1.25;;;;;;;;;;5062031;28;20202;-87
2023/08/26 09:31:46;;;;;;;1.55;1.10;;;;;;;;;;5064945;28;20229;-87
2023/08/26 09:34:13;;;;;;;1.13;1.02;;;;;;;;;;5063919;28;20715;-87
2023/08/26 09:36:41;;;;;;;0.82;0.82;;;;;;;;;;5053075;28;20237;-87
2023/08/26 09:39:13;;;;;;;2.28;1.88;;;;;;;;;;5062608;28;20202;-87
2023/08/26 09:41:42;;;;;;;1.58;0.90;;;;;;;;;;5065506;28;20225;-86
2023/08/26 09:44:10;;;;;;;2.05;1.17;;;;;;;;;;5069047;28;20229;-88
2023/08/26 09:46:39;;;;;;;1.30;0.95;;;;;;;;;;5065517;28;20280;-89
2023/08/26 09:49:06;;;;;;;1.65;0.90;;;;;;;;;;5068650;28;20623;-87
2023/08/26 09:51:33;;;;;;;1.60;0.70;;;;;;;;;;5064239;28;20236;-87
2023/08/26 09:54:01;;;;;;;1.15;1.00;;;;;;;;;;5064874;28;20737;-86
2023/08/26 09:56:28;;;;;;;0.98;0.88;;;;;;;;;;5060936;28;20230;-87
2023/08/26 09:58:57;;;;;;;1.00;0.82;;;;;;;;;;5061265;28;20232;-87
2023/08/26 10:01:25;;;;;;;4.05;2.20;;;;;;;;;;5061432;28;20234;-88
2023/08/26 10:03:54;;;;;;;1.38;0.98;;;;;;;;;;5061210;28;20226;-88
2023/08/26 10:06:23;;;;;;;0.70;0.70;;;;;;;;;;5060686;28;20225;-88
2023/08/26 10:08:55;;;;;;;1.00;0.90;;;;;;;;;;5061096;28;20210;-88
2023/08/26 10:11:23;;;;;;;2.85;1.30;;;;;;;;;;5062622;28;20252;-88
2023/08/26 10:13:51;;;;;;;0.88;0.80;;;;;;;;;;5067260;28;20201;-88
2023/08/26 10:16:23;;;;;;;1.88;0.82;;;;;;;;;;5065116;28;20232;-88
2023/08/26 10:18:51;;;;;;;0.90;0.82;;;;;;;;;;5065370;28;20289;-87
2023/08/26 10:21:19;;;;;;;1.15;0.98;;;;;;;;;;5064878;28;20237;-87
2023/08/26 10:23:47;;;;;;;1.20;1.15;;;;;;;;;;5069464;28;20201;-87
2023/08/26 10:26:14;;;;;;;0.95;0.95;;;;;;;;;;5056248;28;20230;-87
2023/08/26 10:28:42;;;;;;;2.88;1.27;;;;;;;;;;5068315;28;20214;-88
2023/08/26 10:31:10;;;;;;;1.35;0.77;;;;;;;;;;5060650;28;20234;-90
2023/08/26 10:33:55;;;;;;;1.98;0.90;;;;;;;;;;5064551;28;20220;-88
2023/08/26 10:36:24;;;;;;;2.80;1.00;;;;;;;;;;5061126;28;20225;-88
2023/08/26 10:38:56;;;;;;;3.13;1.35;;;;;;;;;;5060234;28;20202;-89
2023/08/26 10:41:23;;;;;;;1.35;1.23;;;;;;;;;;5056524;28;20230;-88
2023/08/26 10:43:54;;;;;;;1.00;0.90;;;;;;;;;;5066248;28;20566;-88
2023/08/26 10:46:32;;;;;;;1.58;1.08;;;;;;;;;;5061286;28;20232;-88
2023/08/26 10:49:00;;;;;;;1.30;1.10;;;;;;;;;;5063617;28;20262;-87
2023/08/26 10:51:28;;;;;;;1.45;0.95;;;;;;;;;;5060322;28;20229;-89
2023/08/26 10:54:02;;;;;;;1.10;1.02;;;;;;;;;;5060200;28;20596;-90
2023/08/26 10:56:32;;;;;;;3.03;1.38;;;;;;;;;;5067743;28;20252;-92
2023/08/26 10:59:02;;;;;;;1.30;1.00;;;;;;;;;;5047384;28;20262;-88
2023/08/26 11:01:29;;;;;;;1.08;0.93;;;;;;;;;;5061870;28;20264;-87
2023/08/26 11:03:58;;;;;;;1.42;1.13;;;;;;;;;;5056944;28;20237;-87
2023/08/26 11:06:26;;;;;;;1.33;1.17;;;;;;;;;;5069856;28;20273;-87
2023/08/26 11:08:58;;;;;;;0.88;0.77;;;;;;;;;;5065762;28;20209;-88
2023/08/26 11:11:26;;;;;;;1.17;1.08;;;;;;;;;;5061736;28;20309;-88
2023/08/26 11:13:54;;;;;;;3.03;1.13;;;;;;;;;;5065581;28;20218;-90
2023/08/26 11:16:21;;;;;;;3.35;2.15;;;;;;;;;;5060446;28;20236;-88
2023/08/26 11:18:48;;;;;;;2.70;1.30;;;;;;;;;;5066313;28;20686;-87
2023/08/26 11:21:15;;;;;;;1.25;1.10;;;;;;;;;;5059903;28;20242;-87
2023/08/26 11:23:43;;;;;;;2.58;1.13;;;;;;;;;;5063149;28;20209;-87
2023/08/26 11:26:16;;;;;;;1.52;1.15;;;;;;;;;;5062552;28;20236;-87
2023/08/26 11:28:43;;;;;;;1.23;0.82;;;;;;;;;;5052605;28;20210;-87
2023/08/26 11:31:12;;;;;;;1.60;1.15;;;;;;;;;;5059304;28;20252;-87
2023/08/26 11:33:39;;;;;;;2.40;1.40;;;;;;;;;;5051800;28;20802;-87
2023/08/26 11:36:07;;;;;;;1.42;1.00;;;;;;;;;;5059009;28;20233;-87
2023/08/26 11:38:35;;;;;;;1.02;0.90;;;;;;;;;;5054436;28;20226;-87
2023/08/26 11:41:03;;;;;;;0.95;0.90;;;;;;;;;;5059205;28;20299;-87
2023/08/26 11:43:32;;;;;;;0.88;0.88;;;;;;;;;;5062221;28;20759;-87
2023/08/26 11:45:59;;;;;;;2.10;1.10;;;;;;;;;;5056125;28;20613;-87
2023/08/26 11:48:27;;;;;;;0.77;0.77;;;;;;;;;;5067713;28;20713;-87
2023/08/26 11:51:00;;;;;;;1.98;1.33;;;;;;;;;;5059168;28;20229;-87
2023/08/26 11:53:27;;;;;;;2.28;1.00;;;;;;;;;;5059091;28;20289;-86
2023/08/26 11:55:55;;;;;;;1.58;1.10;;;;;;;;;;5061734;28;20652;-87
2023/08/26 11:58:22;;;;;;;2.55;1.10;;;;;;;;;;5055332;28;20229;-89
2023/08/26 12:00:51;;;;;;;1.13;1.08;;;;;;;;;;5058078;28;20236;-87
2023/08/26 12:03:18;;;;;;;1.85;1.10;;;;;;;;;;5043326;28;20215;-87
2023/08/26 12:05:46;;;;;;;0.95;0.75;;;;;;;;;;5058075;28;20238;-86
2023/08/26 12:08:16;;;;;;;1.17;1.08;;;;;;;;;;5067060;28;20210;-88
2023/08/26 12:10:43;;;;;;;2.03;1.00;;;;;;;;;;5054555;28;20221;-89
2023/08/26 12:13:12;;;;;;;3.17;1.20;;;;;;;;;;5071535;28;20205;-88
2023/08/26 12:15:40;;;;;;;1.98;1.15;;;;;;;;;;5067877;28;20233;-87
2023/08/26 12:18:09;;;;;;;0.93;0.93;;;;;;;;;;5066956;28;20229;-86
2023/08/26 12:20:37;;;;;;;2.13;1.20;;;;;;;;;;5073843;28;20225;-87
2023/08/26 12:23:05;;;;;;;1.40;1.27;;;;;;;;;;5059170;28;20210;-87
2023/08/26 12:25:32;;;;;;;2.08;0.90;;;;;;;;;;5058807;28;20603;-88
2023/08/26 12:28:06;;;;;;;1.88;0.90;;;;;;;;;;5074174;28;20209;-87
2023/08/26 12:30:33;;;;;;;1.73;1.20;;;;;;;;;;5071013;28;20231;-87
2023/08/26 12:33:00;;;;;;;3.17;1.10;;;;;;;;;;5068961;28;20216;-87
2023/08/26 12:35:29;;;;;;;1.30;1.20;;;;;;;;;;5059047;28;20238;-86
2023/08/26 12:37:56;;;;;;;0.98;0.77;;;;;;;;;;5059732;28;20587;-86
2023/08/26 12:40:23;;;;;;;1.95;0.80;;;;;;;;;;5055949;28;20603;-86
2023/08/26 12:42:52;;;;;;;1.75;1.08;;;;;;;;;;5054217;28;20210;-87
2023/08/26 12:45:19;;;;;;;0.95;0.95;;;;;;;;;;5053445;28;20252;-86
2023/08/26 12:47:46;;;;;;;1.23;1.05;;;;;;;;;;5058282;28;20209;-86
2023/08/26 12:50:13;;;;;;;1.67;1.15;;;;;;;;;;5065378;28;20198;-86
2023/08/26 12:52:41;;;;;;;1.48;1.05;;;;;;;;;;5062536;28;20220;-87
2023/08/26 12:55:08;;;;;;;1.33;1.02;;;;;;;;;;5055905;28;20240;-87
2023/08/26 12:57:36;;;;;;;1.13;1.10;;;;;;;;;;5054336;28;20234;-87
2023/08/26 13:00:04;;;;;;;0.80;0.80;;;;;;;;;;5053227;28;20561;-88
2023/08/26 13:02:31;;;;;;;1.10;0.90;;;;;;;;;;5064114;28;20205;-87
2023/08/26 13:04:58;;;;;;;1.35;1.13;;;;;;;;;;5065707;28;20226;-86
2023/08/26 13:07:25;;;;;;;4.22;1.10;;;;;;;;;;5058954;28;20232;-86
2023/08/26 13:09:53;;;;;;;6.80;0.98;;;;;;;;;;5072048;28;20206;-86
2023/08/26 13:12:21;;;;;;;1.58;0.68;;;;;;;;;;5057963;28;20627;-87
2023/08/26 13:14:48;;;;;;;1.05;0.98;;;;;;;;;;5064452;28;20233;-88
2023/08/26 13:17:15;;;;;;;0.70;0.70;;;;;;;;;;5054571;28;20234;-87
2023/08/26 13:19:42;;;;;;;1.00;0.90;;;;;;;;;;5054959;28;20199;-86
2023/08/26 13:22:09;;;;;;;0.93;0.93;;;;;;;;;;5054729;28;20725;-87
2023/08/26 13:24:37;;;;;;;0.93;0.90;;;;;;;;;;5055093;28;20569;-87
2023/08/26 13:27:05;;;;;;;1.38;0.98;;;;;;;;;;5062471;28;20233;-86
2023/08/26 13:29:33;;;;;;;2.05;1.02;;;;;;;;;;5056125;28;20213;-85
2023/08/26 13:32:00;;;;;;;3.40;1.00;;;;;;;;;;5052588;28;20237;-85
2023/08/26 13:34:27;;;;;;;1.52;1.15;;;;;;;;;;5053013;28;20229;-86
2023/08/26 13:36:54;;;;;;;1.23;1.15;;;;;;;;;;5066264;28;20600;-87
2023/08/26 13:39:21;;;;;;;1.17;1.17;;;;;;;;;;5067698;28;20202;-86
2023/08/26 13:41:48;;;;;;;1.60;1.20;;;;;;;;;;5061778;28;20230;-87
2023/08/26 13:44:16;;;;;;;2.35;1.20;;;;;;;;;;5062794;28;20247;-87
2023/08/26 13:46:43;;;;;;;0.93;0.93;;;;;;;;;;5053116;28;20230;-87
2023/08/26 13:49:10;;;;;;;1.20;1.08;;;;;;;;;;5054719;28;20688;-85
2023/08/26 13:51:38;;;;;;;1.38;1.08;;;;;;;;;;5062151;28;20240;-86
2023/08/26 13:54:05;;;;;;;2.10;1.40;;;;;;;;;;5057884;28;20233;-87
2023/08/26 13:56:32;;;;;;;1.30;0.98;;;;;;;;;;5075276;28;20714;-89
2023/08/26 13:59:00;;;;;;;1.17;0.95;;;;;;;;;;5059885;28;20226;-86
2023/08/26 14:01:29;;;;;;;1.88;1.13;;;;;;;;;;5052951;28;20226;-86
2023/08/26 14:03:56;;;;;;;1.08;1.08;;;;;;;;;;5059187;28;20232;-86
2023/08/26 14:08:45;;;;;;;1.30;1.20;;;;;;;;;;5089257;28;20549;-85
2023/08/26 14:11:12;;;;;;;3.65;1.00;;;;;;;;;;5089374;27;20232;-84
2023/08/26 14:13:39;;;;;;;3.33;1.20;;;;;;;;;;5088833;28;20208;-85
2023/08/26 14:16:07;;;;;;;3.20;1.20;;;;;;;;;;5069869;28;20299;-84
2023/08/26 14:18:34;;;;;;;1.38;1.23;;;;;;;;;;5069706;28;20197;-84
2023/08/26 14:21:01;;;;;;;1.42;1.33;;;;;;;;;;5068288;22;20234;-83
2023/08/26 14:23:28;;;;;;;3.92;1.08;;;;;;;;;;5036473;28;20210;-84
2023/08/26 14:25:57;;;;;;;2.58;1.30;;;;;;;;;;5040949;28;20711;-86
2023/08/26 14:28:24;;;;;;;1.38;1.27;;;;;;;;;;5045311;28;20221;-83
2023/08/26 14:30:52;;;;;;;1.73;1.40;;;;;;;;;;5038745;28;20237;-86
2023/08/26 14:33:19;;;;;;;1.60;1.50;;;;;;;;;;5046595;28;20268;-85
2023/08/26 14:35:50;;;;;;;2.03;1.52;;;;;;;;;;5038761;28;20226;-86
2023/08/26 14:38:17;;;;;;;2.15;1.45;;;;;;;;;;5047547;28;20211;-86
2023/08/26 14:40:44;;;;;;;1.40;1.30;;;;;;;;;;5046527;28;20706;-86
2023/08/26 14:43:15;;;;;;;2.10;1.25;;;;;;;;;;5047693;28;20210;-86
2023/08/26 14:45:42;;;;;;;1.67;1.58;;;;;;;;;;5047281;28;20237;-86
2023/08/26 14:48:09;;;;;;;1.73;1.63;;;;;;;;;;5047723;28;20699;-86
2023/08/26 14:50:37;;;;;;;1.73;1.60;;;;;;;;;;5047639;28;20270;-85
2023/08/26 14:53:04;;;;;;;2.45;1.40;;;;;;;;;;5047979;28;20209;-85